createdAt,value
2023-01-03T00:01:22.000Z,9.49
2023-01-03T00:05:23.682Z,9.48
2023-01-03T00:09:25.449Z,9.44
2023-01-03T00:13:27.007Z,9.42
2023-01-03T00:17:29.057Z,9.40
2023-01-03T00:21:30.625Z,9.41
2023-01-03T00:25:32.149Z,9.40
2023-01-03T00:29:34.378Z,9.41
2023-01-03T00:33:37.877Z,9.40
2023-01-03T00:37:39.521Z,9.37
2023-01-03T00:41:41.351Z,9.32
2023-01-03T00:45:42.958Z,9.30
2023-01-03T00:49:44.659Z,9.26
2023-01-03T00:53:47.916Z,9.26
2023-01-03T00:57:49.457Z,9.27
2023-01-03T01:01:54.721Z,9.22
2023-01-03T01:05:56.437Z,9.17
2023-01-03T01:09:58.001Z,9.15
2023-01-03T01:13:59.628Z,9.13
2023-01-03T01:18:02.058Z,9.08
2023-01-03T01:22:04.212Z,9.03
2023-01-03T01:26:07.396Z,8.98
2023-01-03T01:30:09.137Z,8.94
2023-01-03T01:34:11.149Z,8.91
2023-01-03T01:38:12.785Z,8.89
2023-01-03T01:42:33.043Z,8.88
2023-01-03T01:46:34.725Z,8.86
2023-01-03T01:50:46.731Z,8.85
2023-01-03T01:54:51.498Z,8.79
2023-01-03T01:58:53.877Z,8.79
2023-01-03T02:02:56.035Z,8.75
2023-01-03T02:06:58.377Z,8.70
2023-01-03T02:11:26.260Z,8.68
2023-01-03T02:15:50.790Z,8.67
2023-01-03T02:19:55.281Z,8.65
2023-01-03T02:24:06.173Z,8.67
2023-01-03T02:28:38.478Z,8.67
2023-01-03T02:32:52.733Z,8.65
2023-01-03T02:37:23.570Z,8.65
2023-01-03T02:41:42.785Z,8.65
2023-01-03T02:46:00.040Z,8.65
2023-01-03T02:50:04.484Z,8.60
2023-01-03T02:54:10.536Z,8.58
2023-01-03T02:58:39.954Z,8.55
2023-01-03T03:02:50.133Z,8.49
2023-01-03T03:07:03.270Z,8.46
2023-01-03T03:11:23.442Z,8.43
2023-01-03T03:15:30.994Z,8.43
2023-01-03T03:19:53.978Z,8.42
2023-01-03T03:24:20.915Z,8.37
2023-01-03T03:28:36.018Z,8.40
2023-01-03T03:32:41.602Z,8.31
2023-01-03T03:36:58.754Z,8.25
2023-01-03T03:41:35.296Z,8.18
2023-01-03T03:45:42.462Z,8.20
2023-01-03T03:49:45.841Z,8.20
2023-01-03T03:53:48.169Z,8.18
2023-01-03T03:58:07.139Z,8.17
2023-01-03T04:02:11.342Z,8.13
2023-01-03T04:06:22.250Z,8.10
2023-01-03T04:10:24.419Z,8.06
2023-01-03T04:14:28.244Z,8.00
2023-01-03T04:18:30.113Z,7.96
2023-01-03T04:22:31.655Z,7.96
2023-01-03T04:26:33.726Z,7.92
2023-01-03T04:30:35.453Z,7.91
2023-01-03T04:34:37.026Z,7.91
2023-01-03T04:38:38.633Z,7.89
2023-01-03T04:42:58.680Z,7.92
2023-01-03T04:47:00.185Z,7.89
2023-01-03T04:51:01.764Z,7.86
2023-01-03T04:55:03.336Z,7.86
2023-01-03T04:59:05.576Z,7.85
2023-01-03T05:03:07.209Z,7.84
2023-01-03T05:07:08.755Z,7.86
2023-01-03T05:11:10.339Z,7.86
2023-01-03T05:15:11.838Z,7.84
2023-01-03T05:19:13.408Z,7.82
2023-01-03T05:23:35.223Z,7.81
2023-01-03T05:27:36.863Z,7.79
2023-01-03T05:31:38.795Z,7.77
2023-01-03T05:35:40.609Z,7.76
2023-01-03T05:39:42.149Z,7.76
2023-01-03T05:43:43.673Z,7.76
2023-01-03T05:47:45.239Z,7.73
2023-01-03T05:51:46.833Z,7.71
2023-01-03T05:55:48.436Z,7.71
2023-01-03T05:59:50.840Z,7.74
2023-01-03T06:03:52.815Z,7.74
2023-01-03T06:07:54.500Z,7.77
2023-01-03T06:11:56.055Z,7.74
2023-01-03T06:16:24.800Z,7.73
2023-01-03T06:20:27.561Z,7.71
2023-01-03T06:24:29.339Z,7.71
2023-01-03T06:28:30.853Z,7.71
2023-01-03T06:32:32.509Z,7.69
2023-01-03T06:36:34.496Z,7.63
2023-01-03T06:40:40.775Z,7.54
2023-01-03T06:44:43.945Z,7.47
2023-01-03T06:49:05.260Z,7.41
2023-01-03T06:53:13.647Z,7.37
2023-01-03T06:57:25.968Z,7.33
2023-01-03T07:01:30.919Z,7.32
2023-01-03T07:05:32.788Z,7.27
2023-01-03T07:09:34.334Z,7.23
2023-01-03T07:13:54.503Z,7.19
2023-01-03T07:17:56.377Z,7.15
2023-01-03T07:21:57.896Z,7.12
2023-01-03T07:25:59.522Z,7.09
2023-01-03T07:30:01.105Z,7.04
2023-01-03T07:34:02.671Z,6.99
2023-01-03T07:38:05.131Z,6.93
2023-01-03T07:42:25.353Z,6.91
2023-01-03T07:46:29.586Z,6.89
2023-01-03T07:50:31.290Z,6.83
2023-01-03T07:54:32.865Z,6.81
2023-01-03T07:58:35.517Z,6.76
2023-01-03T08:02:37.238Z,6.73
2023-01-03T08:06:38.962Z,6.73
2023-01-03T08:10:58.891Z,6.76
2023-01-03T08:15:00.462Z,6.76
2023-01-03T08:19:02.092Z,6.75
2023-01-03T08:23:03.841Z,6.73
2023-01-03T08:27:05.446Z,6.71
2023-01-03T08:31:34.404Z,6.69
2023-01-03T08:35:38.074Z,6.64
2023-01-03T08:39:46.624Z,6.63
2023-01-03T08:43:49.128Z,6.64
2023-01-03T08:47:50.701Z,6.64
2023-01-03T08:51:52.310Z,6.58
2023-01-03T08:55:53.847Z,6.54
2023-01-03T08:59:55.426Z,6.53
2023-01-03T09:03:57.115Z,6.60
2023-01-03T09:07:58.989Z,6.65
2023-01-03T09:12:00.612Z,6.73
2023-01-03T09:16:07.673Z,6.76
2023-01-03T09:20:10.240Z,6.72
2023-01-03T09:24:11.836Z,6.78
2023-01-03T09:28:13.831Z,6.82
2023-01-03T09:32:15.671Z,6.91
2023-01-03T09:36:17.348Z,7.00
2023-01-03T09:40:19.139Z,7.08
2023-01-03T09:44:20.711Z,7.19
2023-01-03T09:48:40.675Z,7.30
2023-01-03T09:53:03.233Z,7.39
2023-01-03T09:57:34.230Z,7.50
2023-01-03T10:02:21.985Z,7.58
2023-01-03T10:06:55.435Z,7.71
2023-01-03T10:11:08.394Z,7.81
2023-01-03T10:15:15.975Z,7.88
2023-01-03T10:19:26.515Z,7.99
2023-01-03T10:23:30.384Z,8.12
2023-01-03T10:27:35.238Z,8.22
2023-01-03T10:31:47.146Z,8.31
2023-01-03T10:35:49.255Z,8.37
2023-01-03T10:40:02.000Z,8.49
2023-01-03T10:44:04.498Z,8.57
2023-01-03T10:48:06.106Z,8.65
2023-01-03T10:52:31.525Z,8.75
2023-01-03T10:56:35.797Z,8.86
2023-01-03T11:00:38.708Z,8.94
2023-01-03T11:04:41.508Z,9.04
2023-01-03T11:08:48.156Z,9.22
2023-01-03T11:12:50.045Z,9.26
2023-01-03T11:17:12.663Z,9.34
2023-01-03T11:21:30.145Z,9.45
2023-01-03T11:26:13.673Z,9.53
2023-01-03T11:30:26.970Z,9.68
2023-01-03T11:35:21.585Z,9.81
2023-01-03T11:39:34.929Z,9.83
2023-01-03T11:44:16.289Z,9.77
2023-01-03T11:48:17.821Z,9.80
2023-01-03T11:53:00.805Z,9.91
2023-01-03T11:57:14.246Z,10.02
2023-01-03T12:01:39.094Z,10.10
2023-01-03T12:05:48.705Z,10.18
2023-01-03T12:10:06.625Z,10.24
2023-01-03T12:14:15.708Z,10.24
2023-01-03T12:18:32.799Z,10.22
2023-01-03T12:22:41.779Z,10.28
2023-01-03T12:26:51.250Z,10.28
2023-01-03T12:31:09.455Z,10.32
2023-01-03T12:35:27.486Z,10.35
2023-01-03T12:39:47.714Z,10.42
2023-01-03T12:43:54.738Z,10.44
2023-01-03T12:48:11.374Z,10.46
2023-01-03T12:52:17.236Z,10.51
2023-01-03T12:56:29.075Z,10.52
2023-01-03T13:00:52.753Z,10.55
2023-01-03T13:05:01.148Z,10.55
2023-01-03T13:09:19.486Z,10.63
2023-01-03T13:13:21.791Z,10.80
2023-01-03T13:17:28.395Z,10.95
2023-01-03T13:22:09.162Z,11.06
2023-01-03T13:26:20.641Z,11.06
2023-01-03T13:30:31.113Z,11.05
2023-01-03T13:34:34.406Z,11.02
2023-01-03T13:38:36.006Z,10.95
2023-01-03T13:42:39.627Z,10.95
2023-01-03T13:46:42.439Z,10.93
2023-01-03T13:51:14.204Z,10.91
2023-01-03T13:55:36.985Z,10.87
2023-01-03T13:59:44.118Z,10.86
2023-01-03T14:04:08.220Z,10.81
2023-01-03T14:08:46.335Z,10.80
2023-01-03T14:13:12.333Z,10.76
2023-01-03T14:17:17.650Z,10.72
2023-01-03T14:21:25.768Z,10.69
2023-01-03T14:25:39.923Z,10.66
2023-01-03T14:29:47.391Z,10.60
2023-01-03T14:33:59.142Z,10.54
2023-01-03T14:38:06.522Z,10.47
2023-01-03T14:42:16.356Z,10.43
2023-01-03T14:46:18.647Z,10.39
2023-01-03T14:50:28.800Z,10.32
2023-01-03T14:54:30.677Z,10.28
2023-01-03T14:58:47.224Z,10.24
2023-01-03T15:02:49.537Z,10.20
2023-01-03T15:07:02.525Z,10.18
2023-01-03T15:11:09.018Z,10.17
2023-01-03T15:15:24.686Z,10.14
2023-01-03T15:19:28.762Z,10.13
2023-01-03T15:23:36.679Z,10.11
2023-01-03T15:27:38.206Z,10.10
2023-01-03T15:31:47.790Z,10.10
2023-01-03T15:35:51.499Z,10.09
2023-01-03T15:39:55.523Z,10.07
2023-01-03T15:43:57.124Z,10.02
2023-01-03T15:48:01.166Z,10.01
2023-01-03T15:52:02.842Z,9.96
2023-01-03T15:56:14.483Z,9.91
2023-01-03T16:00:20.192Z,9.83
2023-01-03T16:04:22.108Z,9.77
2023-01-03T16:08:37.061Z,9.73
2023-01-03T16:12:41.700Z,9.73
2023-01-03T16:16:47.086Z,9.73
2023-01-03T16:20:49.146Z,9.73
2023-01-03T16:24:50.751Z,9.71
2023-01-03T16:28:52.272Z,9.68
2023-01-03T16:32:53.882Z,9.68
2023-01-03T16:36:55.436Z,9.71
2023-01-03T16:40:57.700Z,9.71
2023-01-03T16:44:59.253Z,9.65
2023-01-03T16:49:00.983Z,9.59
2023-01-03T16:53:03.086Z,9.56
2023-01-03T16:57:04.641Z,9.55
2023-01-03T17:01:06.501Z,9.55
2023-01-03T17:05:08.549Z,9.55
2023-01-03T17:09:22.435Z,9.55
2023-01-03T17:13:41.883Z,9.50
2023-01-03T17:17:43.488Z,9.44
2023-01-03T17:21:51.203Z,9.38
2023-01-03T17:25:53.572Z,9.34
2023-01-03T17:30:00.053Z,9.27
2023-01-03T17:34:12.109Z,9.23
2023-01-03T17:38:25.752Z,9.13
2023-01-03T17:42:29.169Z,9.08
2023-01-03T17:46:50.229Z,9.01
2023-01-03T17:50:51.906Z,8.97
2023-01-03T17:54:53.760Z,8.93
2023-01-03T17:58:56.513Z,8.89
2023-01-03T18:03:01.011Z,8.93
2023-01-03T18:07:02.879Z,8.97
2023-01-03T18:11:07.289Z,9.00
2023-01-03T18:15:17.252Z,9.03
2023-01-03T18:19:18.799Z,9.03
2023-01-03T18:23:25.832Z,9.04
2023-01-03T18:27:27.656Z,9.04
2023-01-03T18:31:29.736Z,9.00
2023-01-03T18:35:37.421Z,8.97
2023-01-03T18:39:40.083Z,8.93
2023-01-03T18:43:41.626Z,8.88
2023-01-03T18:47:43.444Z,8.80
2023-01-03T18:51:53.299Z,8.75
2023-01-03T18:55:54.956Z,8.68
2023-01-03T18:59:56.511Z,8.65
2023-01-03T19:03:58.345Z,8.58
2023-01-03T19:08:00.388Z,8.50
2023-01-03T19:12:01.988Z,8.45
2023-01-03T19:16:03.723Z,8.43
2023-01-03T19:20:06.063Z,8.40
2023-01-03T19:24:22.404Z,8.37
2023-01-03T19:28:25.272Z,8.37
2023-01-03T19:32:29.334Z,8.34
2023-01-03T19:36:31.468Z,8.31
2023-01-03T19:40:34.409Z,8.27
2023-01-03T19:44:36.389Z,8.24
2023-01-03T19:48:37.906Z,8.21
2023-01-03T19:52:39.533Z,8.21
2023-01-03T19:56:41.148Z,8.21
2023-01-03T20:00:43.080Z,8.20
2023-01-03T20:04:45.074Z,8.20
2023-01-03T20:08:47.227Z,8.21
2023-01-03T20:12:50.964Z,8.20
2023-01-03T20:16:52.512Z,8.18
2023-01-03T20:20:57.148Z,8.20
2023-01-03T20:24:58.751Z,8.20
2023-01-03T20:29:00.762Z,8.18
2023-01-03T20:33:02.378Z,8.18
2023-01-03T20:37:04.389Z,8.17
2023-01-03T20:41:06.347Z,8.14
2023-01-03T20:45:08.567Z,8.10
2023-01-03T20:49:27.960Z,8.10
2023-01-03T20:53:29.483Z,8.04
2023-01-03T20:57:31.046Z,8.02
2023-01-03T21:01:32.769Z,7.95
2023-01-03T21:05:35.275Z,7.88
2023-01-03T21:09:36.868Z,7.85
2023-01-03T21:13:38.399Z,7.79
2023-01-03T21:17:40.974Z,7.74
2023-01-03T21:21:47.517Z,7.70
2023-01-03T21:25:49.736Z,7.63
2023-01-03T21:29:51.325Z,7.57
2023-01-03T21:33:52.947Z,7.51
2023-01-03T21:37:55.005Z,7.45
2023-01-03T21:42:15.142Z,7.44
2023-01-03T21:46:18.651Z,7.37
2023-01-03T21:50:21.405Z,7.36
2023-01-03T21:54:23.177Z,7.33
2023-01-03T21:58:24.902Z,7.32
2023-01-03T22:02:45.533Z,7.29
2023-01-03T22:06:47.253Z,7.24
2023-01-03T22:10:48.818Z,7.23
2023-01-03T22:14:50.324Z,7.18
2023-01-03T22:18:52.295Z,7.12
2023-01-03T22:22:54.535Z,7.12
2023-01-03T22:26:56.100Z,7.11
2023-01-03T22:30:57.664Z,7.11
2023-01-03T22:34:59.596Z,7.08
2023-01-03T22:39:01.145Z,7.05
2023-01-03T22:43:02.716Z,7.01
2023-01-03T22:47:04.715Z,6.97
2023-01-03T22:51:09.344Z,6.94
2023-01-03T22:55:11.609Z,6.91
2023-01-03T22:59:13.524Z,6.90
2023-01-03T23:03:15.082Z,6.91
2023-01-03T23:07:16.712Z,6.90
2023-01-03T23:11:39.712Z,6.86
2023-01-03T23:15:41.269Z,6.81
2023-01-03T23:19:42.819Z,6.78
2023-01-03T23:23:49.507Z,6.78
2023-01-03T23:27:51.159Z,6.79
2023-01-03T23:31:52.799Z,6.78
2023-01-03T23:35:54.379Z,6.73
2023-01-03T23:39:56.146Z,6.72
2023-01-03T23:43:57.672Z,6.68
2023-01-03T23:47:59.247Z,6.68
2023-01-03T23:52:00.814Z,6.68
2023-01-03T23:56:07.086Z,6.64
